sensor_id;sensor_type;location;lat;lon;timestamp;temperature;humidity
13998;DHT22;7074;51.508;7.018;2023-11-19T00:00:10;12.20;99.90
13998;DHT22;7074;51.508;7.018;2023-11-19T00:02:38;12.20;99.90
13998;DHT22;7074;51.508;7.018;2023-11-19T00:05:07;12.30;99.90
13998;DHT22;7074;51.508;7.018;2023-11-19T00:07:37;12.30;99.90
13998;DHT22;7074;51.508;7.018;2023-11-19T00:10:08;12.30;99.90
13998;DHT22;7074;51.508;7.018;2023-11-19T00:12:37;12.30;99.90
13998;DHT22;7074;51.508;7.018;2023-11-19T00:15:06;12.40;99.90
13998;DHT22;7074;51.508;7.018;2023-11-19T00:17:37;12.40;99.90
13998;DHT22;7074;51.508;7.018;2023-11-19T00:20:09;12.40;99.90
13998;DHT22;7074;51.508;7.018;2023-11-19T00:22:36;12.50;99.90
13998;DHT22;7074;51.508;7.018;2023-11-19T00:25:05;12.50;99.90
13998;DHT22;7074;51.508;7.018;2023-11-19T00:27:46;12.50;99.90
13998;DHT22;7074;51.508;7.018;2023-11-19T00:30:17;12.50;99.90
13998;DHT22;7074;51.508;7.018;2023-11-19T00:32:44;12.50;99.90
13998;DHT22;7074;51.508;7.018;2023-11-19T00:35:12;12.50;99.90
13998;DHT22;7074;51.508;7.018;2023-11-19T00:37:40;12.60;99.90
13998;DHT22;7074;51.508;7.018;2023-11-19T00:40:09;12.60;99.90
13998;DHT22;7074;51.508;7.018;2023-11-19T00:42:37;12.60;99.90
13998;DHT22;7074;51.508;7.018;2023-11-19T00:45:05;12.60;99.90
13998;DHT22;7074;51.508;7.018;2023-11-19T00:47:36;12.60;99.90
13998;DHT22;7074;51.508;7.018;2023-11-19T00:50:04;12.70;99.90
13998;DHT22;7074;51.508;7.018;2023-11-19T00:52:32;12.70;99.90
13998;DHT22;7074;51.508;7.018;2023-11-19T00:54:59;12.70;99.90
13998;DHT22;7074;51.508;7.018;2023-11-19T00:57:27;12.70;99.90
13998;DHT22;7074;51.508;7.018;2023-11-19T00:59:54;12.80;99.90
13998;DHT22;7074;51.508;7.018;2023-11-19T01:02:24;12.80;99.90
13998;DHT22;7074;51.508;7.018;2023-11-19T01:04:57;12.80;99.90
13998;DHT22;7074;51.508;7.018;2023-11-19T01:07:24;12.80;99.90
13998;DHT22;7074;51.508;7.018;2023-11-19T01:09:59;12.90;99.90
13998;DHT22;7074;51.508;7.018;2023-11-19T01:12:26;12.90;99.90
13998;DHT22;7074;51.508;7.018;2023-11-19T01:14:56;12.90;99.90
13998;DHT22;7074;51.508;7.018;2023-11-19T01:17:24;12.90;99.90
13998;DHT22;7074;51.508;7.018;2023-11-19T01:19:52;12.90;99.90
13998;DHT22;7074;51.508;7.018;2023-11-19T01:22:24;12.90;99.90
13998;DHT22;7074;51.508;7.018;2023-11-19T01:24:58;13.00;99.90
13998;DHT22;7074;51.508;7.018;2023-11-19T01:27:25;13.00;99.90
13998;DHT22;7074;51.508;7.018;2023-11-19T01:29:55;13.00;99.90
13998;DHT22;7074;51.508;7.018;2023-11-19T01:32:25;13.10;99.90
13998;DHT22;7074;51.508;7.018;2023-11-19T01:34:52;13.10;99.90
13998;DHT22;7074;51.508;7.018;2023-11-19T01:37:21;13.10;99.90
13998;DHT22;7074;51.508;7.018;2023-11-19T01:39:49;13.10;99.90
13998;DHT22;7074;51.508;7.018;2023-11-19T01:42:17;13.20;99.90
13998;DHT22;7074;51.508;7.018;2023-11-19T01:44:56;13.20;99.90
13998;DHT22;7074;51.508;7.018;2023-11-19T01:47:24;13.20;99.90
13998;DHT22;7074;51.508;7.018;2023-11-19T01:49:54;13.20;99.90
13998;DHT22;7074;51.508;7.018;2023-11-19T01:52:23;13.20;99.90
13998;DHT22;7074;51.508;7.018;2023-11-19T01:54:56;13.20;99.90
13998;DHT22;7074;51.508;7.018;2023-11-19T01:57:24;13.30;99.90
13998;DHT22;7074;51.508;7.018;2023-11-19T01:59:52;13.20;99.90
13998;DHT22;7074;51.508;7.018;2023-11-19T02:02:20;13.30;99.90
13998;DHT22;7074;51.508;7.018;2023-11-19T02:04:49;13.30;99.90
13998;DHT22;7074;51.508;7.018;2023-11-19T02:07:18;13.30;99.90
13998;DHT22;7074;51.508;7.018;2023-11-19T02:09:48;13.40;99.90
13998;DHT22;7074;51.508;7.018;2023-11-19T02:12:18;13.40;99.90
13998;DHT22;7074;51.508;7.018;2023-11-19T02:14:46;13.40;99.90
13998;DHT22;7074;51.508;7.018;2023-11-19T02:17:26;13.40;99.90
13998;DHT22;7074;51.508;7.018;2023-11-19T02:19:59;13.40;99.90
13998;DHT22;7074;51.508;7.018;2023-11-19T02:22:30;13.40;99.90
13998;DHT22;7074;51.508;7.018;2023-11-19T02:25:03;13.40;99.90
13998;DHT22;7074;51.508;7.018;2023-11-19T02:27:43;13.50;99.90
13998;DHT22;7074;51.508;7.018;2023-11-19T02:30:18;13.50;99.90
13998;DHT22;7074;51.508;7.018;2023-11-19T02:32:45;13.50;99.90
13998;DHT22;7074;51.508;7.018;2023-11-19T02:35:14;13.50;99.90
13998;DHT22;7074;51.508;7.018;2023-11-19T02:37:41;13.60;99.90
13998;DHT22;7074;51.508;7.018;2023-11-19T02:40:13;13.60;99.90
13998;DHT22;7074;51.508;7.018;2023-11-19T02:42:44;13.60;99.90
13998;DHT22;7074;51.508;7.018;2023-11-19T02:45:12;13.60;99.90
13998;DHT22;7074;51.508;7.018;2023-11-19T02:47:43;13.60;99.90
13998;DHT22;7074;51.508;7.018;2023-11-19T02:50:11;13.60;99.90
13998;DHT22;7074;51.508;7.018;2023-11-19T02:52:40;13.60;99.90
13998;DHT22;7074;51.508;7.018;2023-11-19T02:55:08;13.60;99.90
13998;DHT22;7074;51.508;7.018;2023-11-19T02:57:39;13.60;99.90
13998;DHT22;7074;51.508;7.018;2023-11-19T03:00:16;13.60;99.90
13998;DHT22;7074;51.508;7.018;2023-11-19T03:02:44;13.60;99.90
13998;DHT22;7074;51.508;7.018;2023-11-19T03:05:14;13.60;99.90
13998;DHT22;7074;51.508;7.018;2023-11-19T03:07:46;13.60;99.90
13998;DHT22;7074;51.508;7.018;2023-11-19T03:10:14;13.60;99.90
13998;DHT22;7074;51.508;7.018;2023-11-19T03:12:43;13.70;99.90
13998;DHT22;7074;51.508;7.018;2023-11-19T03:15:14;13.70;99.90
13998;DHT22;7074;51.508;7.018;2023-11-19T03:17:45;13.70;99.90
13998;DHT22;7074;51.508;7.018;2023-11-19T03:20:12;13.70;99.90
13998;DHT22;7074;51.508;7.018;2023-11-19T03:22:46;13.70;99.90
13998;DHT22;7074;51.508;7.018;2023-11-19T03:25:15;13.70;99.90
13998;DHT22;7074;51.508;7.018;2023-11-19T03:27:45;13.70;99.90
13998;DHT22;7074;51.508;7.018;2023-11-19T03:30:17;13.70;99.90
13998;DHT22;7074;51.508;7.018;2023-11-19T03:32:48;13.70;99.90
13998;DHT22;7074;51.508;7.018;2023-11-19T03:35:15;13.70;99.90
13998;DHT22;7074;51.508;7.018;2023-11-19T03:37:48;13.70;99.90
13998;DHT22;7074;51.508;7.018;2023-11-19T03:40:15;13.70;99.90
13998;DHT22;7074;51.508;7.018;2023-11-19T03:42:42;13.70;99.90
13998;DHT22;7074;51.508;7.018;2023-11-19T03:45:12;13.60;99.90
13998;DHT22;7074;51.508;7.018;2023-11-19T03:47:42;13.60;99.90
13998;DHT22;7074;51.508;7.018;2023-11-19T03:50:11;13.60;99.90
13998;DHT22;7074;51.508;7.018;2023-11-19T03:52:38;13.60;99.90
13998;DHT22;7074;51.508;7.018;2023-11-19T03:55:07;13.60;99.90
13998;DHT22;7074;51.508;7.018;2023-11-19T03:57:36;13.50;99.90
13998;DHT22;7074;51.508;7.018;2023-11-19T04:00:07;13.50;99.90
13998;DHT22;7074;51.508;7.018;2023-11-19T04:02:39;13.50;99.90
13998;DHT22;7074;51.508;7.018;2023-11-19T04:05:07;13.50;99.90
13998;DHT22;7074;51.508;7.018;2023-11-19T04:07:37;13.50;99.90
13998;DHT22;7074;51.508;7.018;2023-11-19T04:10:05;13.40;99.90
13998;DHT22;7074;51.508;7.018;2023-11-19T04:12:32;13.40;99.90
13998;DHT22;7074;51.508;7.018;2023-11-19T04:15:00;13.40;99.90
13998;DHT22;7074;51.508;7.018;2023-11-19T04:17:27;13.30;99.90
13998;DHT22;7074;51.508;7.018;2023-11-19T04:20:00;13.30;99.90
13998;DHT22;7074;51.508;7.018;2023-11-19T04:22:32;13.30;99.90
13998;DHT22;7074;51.508;7.018;2023-11-19T04:25:02;13.30;99.90
13998;DHT22;7074;51.508;7.018;2023-11-19T04:27:30;13.30;99.90
13998;DHT22;7074;51.508;7.018;2023-11-19T04:29:58;13.30;99.90
13998;DHT22;7074;51.508;7.018;2023-11-19T04:32:27;13.30;99.90
13998;DHT22;7074;51.508;7.018;2023-11-19T04:34:58;13.20;99.90
13998;DHT22;7074;51.508;7.018;2023-11-19T04:37:27;13.20;99.90
13998;DHT22;7074;51.508;7.018;2023-11-19T04:39:55;13.20;99.90
13998;DHT22;7074;51.508;7.018;2023-11-19T04:42:25;13.10;99.90
13998;DHT22;7074;51.508;7.018;2023-11-19T04:44:53;13.10;99.90
13998;DHT22;7074;51.508;7.018;2023-11-19T04:47:20;13.10;99.90
13998;DHT22;7074;51.508;7.018;2023-11-19T04:49:47;13.10;99.90
13998;DHT22;7074;51.508;7.018;2023-11-19T04:52:17;13.10;99.90
13998;DHT22;7074;51.508;7.018;2023-11-19T04:54:47;13.10;99.90
13998;DHT22;7074;51.508;7.018;2023-11-19T04:57:14;13.10;99.90
13998;DHT22;7074;51.508;7.018;2023-11-19T04:59:43;13.10;99.90
13998;DHT22;7074;51.508;7.018;2023-11-19T05:02:13;13.20;99.90
13998;DHT22;7074;51.508;7.018;2023-11-19T05:04:44;13.20;99.90
13998;DHT22;7074;51.508;7.018;2023-11-19T05:07:12;13.20;99.90
13998;DHT22;7074;51.508;7.018;2023-11-19T05:09:40;13.20;99.90
13998;DHT22;7074;51.508;7.018;2023-11-19T05:12:09;13.20;99.90
13998;DHT22;7074;51.508;7.018;2023-11-19T05:14:38;13.20;99.90
13998;DHT22;7074;51.508;7.018;2023-11-19T05:17:12;13.20;99.90
13998;DHT22;7074;51.508;7.018;2023-11-19T05:19:39;13.20;99.90
13998;DHT22;7074;51.508;7.018;2023-11-19T05:22:06;13.20;99.90
13998;DHT22;7074;51.508;7.018;2023-11-19T05:24:34;13.20;99.90
13998;DHT22;7074;51.508;7.018;2023-11-19T05:27:02;13.30;99.90
13998;DHT22;7074;51.508;7.018;2023-11-19T05:29:32;13.30;99.90
13998;DHT22;7074;51.508;7.018;2023-11-19T05:31:59;13.30;99.90
13998;DHT22;7074;51.508;7.018;2023-11-19T05:34:31;13.30;99.90
13998;DHT22;7074;51.508;7.018;2023-11-19T05:36:59;13.30;99.90
13998;DHT22;7074;51.508;7.018;2023-11-19T05:39:28;13.30;99.90
13998;DHT22;7074;51.508;7.018;2023-11-19T05:41:55;13.20;99.90
13998;DHT22;7074;51.508;7.018;2023-11-19T05:44:22;13.30;99.90
13998;DHT22;7074;51.508;7.018;2023-11-19T05:46:50;13.30;99.90
13998;DHT22;7074;51.508;7.018;2023-11-19T05:49:19;13.30;99.90
13998;DHT22;7074;51.508;7.018;2023-11-19T05:51:51;13.30;99.90
13998;DHT22;7074;51.508;7.018;2023-11-19T05:54:21;13.30;99.90
13998;DHT22;7074;51.508;7.018;2023-11-19T05:56:51;13.30;99.90
13998;DHT22;7074;51.508;7.018;2023-11-19T05:59:20;13.40;99.90
13998;DHT22;7074;51.508;7.018;2023-11-19T06:01:48;13.30;99.90
13998;DHT22;7074;51.508;7.018;2023-11-19T06:04:18;13.30;99.90
13998;DHT22;7074;51.508;7.018;2023-11-19T06:06:45;13.30;99.90
13998;DHT22;7074;51.508;7.018;2023-11-19T06:09:14;13.20;99.90
13998;DHT22;7074;51.508;7.018;2023-11-19T06:11:42;13.20;99.90
13998;DHT22;7074;51.508;7.018;2023-11-19T06:14:10;13.20;99.90
13998;DHT22;7074;51.508;7.018;2023-11-19T06:16:37;13.30;99.90
13998;DHT22;7074;51.508;7.018;2023-11-19T06:19:05;13.20;99.90
13998;DHT22;7074;51.508;7.018;2023-11-19T06:21:34;13.20;99.90
13998;DHT22;7074;51.508;7.018;2023-11-19T06:24:03;13.20;99.90
13998;DHT22;7074;51.508;7.018;2023-11-19T06:26:32;13.20;99.90
13998;DHT22;7074;51.508;7.018;2023-11-19T06:29:00;13.20;99.90
13998;DHT22;7074;51.508;7.018;2023-11-19T06:31:27;13.20;99.90
13998;DHT22;7074;51.508;7.018;2023-11-19T06:33:54;13.20;99.90
13998;DHT22;7074;51.508;7.018;2023-11-19T06:36:21;13.20;99.90
13998;DHT22;7074;51.508;7.018;2023-11-19T06:38:49;13.10;99.90
13998;DHT22;7074;51.508;7.018;2023-11-19T06:41:16;13.20;99.90
13998;DHT22;7074;51.508;7.018;2023-11-19T06:43:45;13.10;99.90
13998;DHT22;7074;51.508;7.018;2023-11-19T06:46:16;13.10;99.90
13998;DHT22;7074;51.508;7.018;2023-11-19T06:48:47;13.20;99.90
13998;DHT22;7074;51.508;7.018;2023-11-19T06:51:15;13.10;99.90
13998;DHT22;7074;51.508;7.018;2023-11-19T06:53:45;13.20;99.90
13998;DHT22;7074;51.508;7.018;2023-11-19T06:56:20;13.20;99.90
13998;DHT22;7074;51.508;7.018;2023-11-19T06:58:50;13.10;99.90
13998;DHT22;7074;51.508;7.018;2023-11-19T07:01:19;13.10;99.90
13998;DHT22;7074;51.508;7.018;2023-11-19T07:03:47;13.10;99.90
13998;DHT22;7074;51.508;7.018;2023-11-19T07:06:15;13.10;99.90
13998;DHT22;7074;51.508;7.018;2023-11-19T07:08:42;13.10;99.90
13998;DHT22;7074;51.508;7.018;2023-11-19T07:11:11;13.10;99.90
13998;DHT22;7074;51.508;7.018;2023-11-19T07:13:39;13.10;99.90
13998;DHT22;7074;51.508;7.018;2023-11-19T07:16:09;13.00;99.90
13998;DHT22;7074;51.508;7.018;2023-11-19T07:18:36;13.00;99.90
13998;DHT22;7074;51.508;7.018;2023-11-19T07:21:05;13.00;99.90
13998;DHT22;7074;51.508;7.018;2023-11-19T07:23:33;13.00;99.90
13998;DHT22;7074;51.508;7.018;2023-11-19T07:26:01;13.10;99.90
13998;DHT22;7074;51.508;7.018;2023-11-19T07:28:42;13.20;99.90
13998;DHT22;7074;51.508;7.018;2023-11-19T07:31:13;13.20;99.90
13998;DHT22;7074;51.508;7.018;2023-11-19T07:33:42;13.20;99.90
13998;DHT22;7074;51.508;7.018;2023-11-19T07:36:13;13.30;99.90
13998;DHT22;7074;51.508;7.018;2023-11-19T07:38:48;13.30;99.90
13998;DHT22;7074;51.508;7.018;2023-11-19T07:41:18;13.30;99.90
13998;DHT22;7074;51.508;7.018;2023-11-19T07:43:47;13.30;99.90
13998;DHT22;7074;51.508;7.018;2023-11-19T07:46:18;13.30;99.90
13998;DHT22;7074;51.508;7.018;2023-11-19T07:48:50;13.30;99.90
13998;DHT22;7074;51.508;7.018;2023-11-19T07:51:17;13.30;99.90
13998;DHT22;7074;51.508;7.018;2023-11-19T07:53:45;13.30;99.90
13998;DHT22;7074;51.508;7.018;2023-11-19T07:56:21;13.30;99.90
13998;DHT22;7074;51.508;7.018;2023-11-19T07:58:52;13.30;99.90
13998;DHT22;7074;51.508;7.018;2023-11-19T08:01:21;13.30;99.90
13998;DHT22;7074;51.508;7.018;2023-11-19T08:03:49;13.20;99.90
13998;DHT22;7074;51.508;7.018;2023-11-19T08:06:17;13.20;99.90
13998;DHT22;7074;51.508;7.018;2023-11-19T08:08:44;13.20;99.90
13998;DHT22;7074;51.508;7.018;2023-11-19T08:11:14;13.20;99.90
13998;DHT22;7074;51.508;7.018;2023-11-19T08:13:43;13.20;99.90
13998;DHT22;7074;51.508;7.018;2023-11-19T08:16:10;13.20;99.90
13998;DHT22;7074;51.508;7.018;2023-11-19T08:18:43;13.20;99.90
13998;DHT22;7074;51.508;7.018;2023-11-19T08:21:20;13.20;99.90
13998;DHT22;7074;51.508;7.018;2023-11-19T08:23:51;13.20;99.90
13998;DHT22;7074;51.508;7.018;2023-11-19T08:26:32;13.30;99.90
13998;DHT22;7074;51.508;7.018;2023-11-19T08:29:00;13.30;99.90
13998;DHT22;7074;51.508;7.018;2023-11-19T08:31:30;13.30;99.90
13998;DHT22;7074;51.508;7.018;2023-11-19T08:33:58;13.30;99.90
13998;DHT22;7074;51.508;7.018;2023-11-19T08:36:28;13.30;99.90
13998;DHT22;7074;51.508;7.018;2023-11-19T08:39:03;13.30;99.90
13998;DHT22;7074;51.508;7.018;2023-11-19T08:41:58;13.40;99.90
13998;DHT22;7074;51.508;7.018;2023-11-19T08:44:34;13.40;99.90
13998;DHT22;7074;51.508;7.018;2023-11-19T08:47:20;13.40;99.90
13998;DHT22;7074;51.508;7.018;2023-11-19T08:49:50;13.30;99.90
13998;DHT22;7074;51.508;7.018;2023-11-19T08:52:18;13.30;99.90
13998;DHT22;7074;51.508;7.018;2023-11-19T08:54:46;13.30;99.90
13998;DHT22;7074;51.508;7.018;2023-11-19T08:57:15;13.20;99.90
13998;DHT22;7074;51.508;7.018;2023-11-19T08:59:42;13.30;99.90
13998;DHT22;7074;51.508;7.018;2023-11-19T09:02:11;13.30;99.90
13998;DHT22;7074;51.508;7.018;2023-11-19T09:04:39;13.30;99.90
13998;DHT22;7074;51.508;7.018;2023-11-19T09:07:08;13.30;99.90
13998;DHT22;7074;51.508;7.018;2023-11-19T09:09:35;13.40;99.90
13998;DHT22;7074;51.508;7.018;2023-11-19T09:12:03;13.50;99.90
13998;DHT22;7074;51.508;7.018;2023-11-19T09:14:31;13.50;99.90
13998;DHT22;7074;51.508;7.018;2023-11-19T09:16:59;13.60;99.90
13998;DHT22;7074;51.508;7.018;2023-11-19T09:19:32;13.60;99.90
13998;DHT22;7074;51.508;7.018;2023-11-19T09:22:07;13.70;99.90
13998;DHT22;7074;51.508;7.018;2023-11-19T09:24:37;13.70;99.90
13998;DHT22;7074;51.508;7.018;2023-11-19T09:27:04;13.70;99.90
13998;DHT22;7074;51.508;7.018;2023-11-19T09:29:32;13.70;99.90
13998;DHT22;7074;51.508;7.018;2023-11-19T09:32:16;13.70;99.90
13998;DHT22;7074;51.508;7.018;2023-11-19T09:34:46;13.80;99.90
13998;DHT22;7074;51.508;7.018;2023-11-19T09:37:17;13.80;99.90
13998;DHT22;7074;51.508;7.018;2023-11-19T09:39:47;13.80;99.90
13998;DHT22;7074;51.508;7.018;2023-11-19T09:42:17;13.90;99.90
13998;DHT22;7074;51.508;7.018;2023-11-19T09:44:45;13.90;99.90
13998;DHT22;7074;51.508;7.018;2023-11-19T09:47:14;13.90;99.90
13998;DHT22;7074;51.508;7.018;2023-11-19T09:49:43;13.90;99.90
13998;DHT22;7074;51.508;7.018;2023-11-19T09:52:11;13.90;99.90
13998;DHT22;7074;51.508;7.018;2023-11-19T09:54:40;13.90;99.90
13998;DHT22;7074;51.508;7.018;2023-11-19T09:57:07;14.00;99.90
13998;DHT22;7074;51.508;7.018;2023-11-19T09:59:39;14.20;99.90
13998;DHT22;7074;51.508;7.018;2023-11-19T10:02:09;14.30;99.90
13998;DHT22;7074;51.508;7.018;2023-11-19T10:04:42;14.30;99.90
13998;DHT22;7074;51.508;7.018;2023-11-19T10:07:11;14.30;99.90
13998;DHT22;7074;51.508;7.018;2023-11-19T10:09:41;14.30;99.90
13998;DHT22;7074;51.508;7.018;2023-11-19T10:12:09;14.20;99.90
13998;DHT22;7074;51.508;7.018;2023-11-19T10:14:38;14.20;99.90
13998;DHT22;7074;51.508;7.018;2023-11-19T10:17:07;14.30;99.90
13998;DHT22;7074;51.508;7.018;2023-11-19T10:19:36;14.40;99.90
13998;DHT22;7074;51.508;7.018;2023-11-19T10:22:10;14.40;99.90
13998;DHT22;7074;51.508;7.018;2023-11-19T10:24:46;14.60;99.90
13998;DHT22;7074;51.508;7.018;2023-11-19T10:27:14;14.50;99.90
13998;DHT22;7074;51.508;7.018;2023-11-19T10:29:45;14.50;99.90
13998;DHT22;7074;51.508;7.018;2023-11-19T10:32:13;14.40;99.90
13998;DHT22;7074;51.508;7.018;2023-11-19T10:34:41;14.40;99.90
13998;DHT22;7074;51.508;7.018;2023-11-19T10:37:09;14.40;99.90
13998;DHT22;7074;51.508;7.018;2023-11-19T10:39:57;14.40;99.90
13998;DHT22;7074;51.508;7.018;2023-11-19T10:42:24;14.40;99.90
13998;DHT22;7074;51.508;7.018;2023-11-19T10:44:52;14.40;99.90
13998;DHT22;7074;51.508;7.018;2023-11-19T10:47:19;14.40;99.90
13998;DHT22;7074;51.508;7.018;2023-11-19T10:49:48;14.30;99.90
13998;DHT22;7074;51.508;7.018;2023-11-19T10:52:18;14.30;99.90
13998;DHT22;7074;51.508;7.018;2023-11-19T10:54:50;14.30;99.90
13998;DHT22;7074;51.508;7.018;2023-11-19T10:57:21;14.40;99.90
13998;DHT22;7074;51.508;7.018;2023-11-19T10:59:50;14.40;99.90
13998;DHT22;7074;51.508;7.018;2023-11-19T11:02:21;14.30;99.90
13998;DHT22;7074;51.508;7.018;2023-11-19T11:04:52;14.40;99.90
13998;DHT22;7074;51.508;7.018;2023-11-19T11:07:21;14.40;99.90
13998;DHT22;7074;51.508;7.018;2023-11-19T11:09:51;14.40;99.90
13998;DHT22;7074;51.508;7.018;2023-11-19T11:12:22;14.40;99.90
13998;DHT22;7074;51.508;7.018;2023-11-19T11:14:52;14.40;99.90
13998;DHT22;7074;51.508;7.018;2023-11-19T11:17:24;14.40;99.90
13998;DHT22;7074;51.508;7.018;2023-11-19T11:19:51;14.50;99.90
13998;DHT22;7074;51.508;7.018;2023-11-19T11:22:21;14.50;99.90
13998;DHT22;7074;51.508;7.018;2023-11-19T11:25:06;14.50;99.90
13998;DHT22;7074;51.508;7.018;2023-11-19T11:28:29;14.60;99.90
13998;DHT22;7074;51.508;7.018;2023-11-19T11:31:08;14.50;99.90
13998;DHT22;7074;51.508;7.018;2023-11-19T11:33:48;14.60;99.90
13998;DHT22;7074;51.508;7.018;2023-11-19T11:36:23;14.60;99.90
13998;DHT22;7074;51.508;7.018;2023-11-19T11:38:52;14.80;99.90
13998;DHT22;7074;51.508;7.018;2023-11-19T11:41:24;14.90;99.90
13998;DHT22;7074;51.508;7.018;2023-11-19T11:43:53;15.00;99.90
13998;DHT22;7074;51.508;7.018;2023-11-19T11:46:55;15.00;99.90
13998;DHT22;7074;51.508;7.018;2023-11-19T11:49:26;14.90;99.90
13998;DHT22;7074;51.508;7.018;2023-11-19T11:52:01;14.90;99.90
13998;DHT22;7074;51.508;7.018;2023-11-19T11:54:30;15.00;99.90
13998;DHT22;7074;51.508;7.018;2023-11-19T11:57:08;14.90;99.90
13998;DHT22;7074;51.508;7.018;2023-11-19T11:59:58;14.90;99.90
13998;DHT22;7074;51.508;7.018;2023-11-19T12:02:31;15.10;99.90
13998;DHT22;7074;51.508;7.018;2023-11-19T12:05:00;15.10;99.90
13998;DHT22;7074;51.508;7.018;2023-11-19T12:07:30;15.20;99.90
13998;DHT22;7074;51.508;7.018;2023-11-19T12:10:08;15.20;99.90
13998;DHT22;7074;51.508;7.018;2023-11-19T12:12:38;15.10;99.90
13998;DHT22;7074;51.508;7.018;2023-11-19T12:15:09;15.10;99.90
13998;DHT22;7074;51.508;7.018;2023-11-19T12:17:47;15.00;99.90
13998;DHT22;7074;51.508;7.018;2023-11-19T12:20:16;15.00;99.90
13998;DHT22;7074;51.508;7.018;2023-11-19T12:22:45;15.00;99.90
13998;DHT22;7074;51.508;7.018;2023-11-19T12:25:16;15.00;99.90
13998;DHT22;7074;51.508;7.018;2023-11-19T12:27:45;14.90;99.90
13998;DHT22;7074;51.508;7.018;2023-11-19T12:30:17;15.00;99.90
13998;DHT22;7074;51.508;7.018;2023-11-19T12:32:45;14.90;99.90
13998;DHT22;7074;51.508;7.018;2023-11-19T12:35:13;14.90;99.90
13998;DHT22;7074;51.508;7.018;2023-11-19T12:37:41;14.90;99.90
13998;DHT22;7074;51.508;7.018;2023-11-19T12:40:16;14.80;99.90
13998;DHT22;7074;51.508;7.018;2023-11-19T12:42:45;14.80;99.90
13998;DHT22;7074;51.508;7.018;2023-11-19T12:45:14;14.80;99.90
13998;DHT22;7074;51.508;7.018;2023-11-19T12:47:42;14.80;99.90
13998;DHT22;7074;51.508;7.018;2023-11-19T12:50:11;14.80;99.90
13998;DHT22;7074;51.508;7.018;2023-11-19T12:52:38;14.70;99.90
13998;DHT22;7074;51.508;7.018;2023-11-19T12:55:24;14.70;99.90
13998;DHT22;7074;51.508;7.018;2023-11-19T12:57:52;14.60;99.90
13998;DHT22;7074;51.508;7.018;2023-11-19T13:00:23;14.50;99.90
13998;DHT22;7074;51.508;7.018;2023-11-19T13:02:52;14.40;99.90
13998;DHT22;7074;51.508;7.018;2023-11-19T13:05:22;14.40;99.90
13998;DHT22;7074;51.508;7.018;2023-11-19T13:07:49;14.40;99.90
13998;DHT22;7074;51.508;7.018;2023-11-19T13:10:17;14.50;99.90
13998;DHT22;7074;51.508;7.018;2023-11-19T13:12:44;14.40;99.90
13998;DHT22;7074;51.508;7.018;2023-11-19T13:15:28;14.30;99.90
13998;DHT22;7074;51.508;7.018;2023-11-19T13:17:55;14.30;99.90
13998;DHT22;7074;51.508;7.018;2023-11-19T13:20:22;14.30;99.90
13998;DHT22;7074;51.508;7.018;2023-11-19T13:23:01;14.40;99.90
13998;DHT22;7074;51.508;7.018;2023-11-19T13:25:32;14.40;99.90
13998;DHT22;7074;51.508;7.018;2023-11-19T13:28:02;14.40;99.90
13998;DHT22;7074;51.508;7.018;2023-11-19T13:30:31;14.50;99.90
13998;DHT22;7074;51.508;7.018;2023-11-19T13:32:58;14.50;99.90
13998;DHT22;7074;51.508;7.018;2023-11-19T13:35:27;14.50;99.90
13998;DHT22;7074;51.508;7.018;2023-11-19T13:37:55;14.40;99.90
13998;DHT22;7074;51.508;7.018;2023-11-19T13:40:24;14.40;99.90
13998;DHT22;7074;51.508;7.018;2023-11-19T13:42:53;14.40;99.90
13998;DHT22;7074;51.508;7.018;2023-11-19T13:45:21;14.30;99.90
13998;DHT22;7074;51.508;7.018;2023-11-19T13:47:50;14.40;99.90
13998;DHT22;7074;51.508;7.018;2023-11-19T13:50:17;14.40;99.90
13998;DHT22;7074;51.508;7.018;2023-11-19T13:52:45;14.50;99.90
13998;DHT22;7074;51.508;7.018;2023-11-19T13:55:18;14.50;99.90
13998;DHT22;7074;51.508;7.018;2023-11-19T13:57:48;14.50;99.90
13998;DHT22;7074;51.508;7.018;2023-11-19T14:00:16;14.50;99.90
13998;DHT22;7074;51.508;7.018;2023-11-19T14:02:45;14.40;99.90
13998;DHT22;7074;51.508;7.018;2023-11-19T14:05:17;14.40;99.90
13998;DHT22;7074;51.508;7.018;2023-11-19T14:07:45;14.40;99.90
13998;DHT22;7074;51.508;7.018;2023-11-19T14:10:14;14.30;99.90
13998;DHT22;7074;51.508;7.018;2023-11-19T14:12:42;14.30;99.90
13998;DHT22;7074;51.508;7.018;2023-11-19T14:15:10;14.30;99.90
13998;DHT22;7074;51.508;7.018;2023-11-19T14:17:38;14.20;99.90
13998;DHT22;7074;51.508;7.018;2023-11-19T14:20:07;14.20;99.90
13998;DHT22;7074;51.508;7.018;2023-11-19T14:22:40;14.20;99.90
13998;DHT22;7074;51.508;7.018;2023-11-19T14:25:08;14.20;99.90
13998;DHT22;7074;51.508;7.018;2023-11-19T14:27:36;14.10;99.90
13998;DHT22;7074;51.508;7.018;2023-11-19T14:30:05;14.10;99.90
13998;DHT22;7074;51.508;7.018;2023-11-19T14:32:33;14.10;99.90
13998;DHT22;7074;51.508;7.018;2023-11-19T14:35:00;14.00;99.90
13998;DHT22;7074;51.508;7.018;2023-11-19T14:37:29;14.00;99.90
13998;DHT22;7074;51.508;7.018;2023-11-19T14:39:59;13.90;99.90
13998;DHT22;7074;51.508;7.018;2023-11-19T14:42:27;13.90;99.90
13998;DHT22;7074;51.508;7.018;2023-11-19T14:44:54;13.80;99.90
13998;DHT22;7074;51.508;7.018;2023-11-19T14:47:22;13.80;99.90
13998;DHT22;7074;51.508;7.018;2023-11-19T14:49:49;13.80;99.90
13998;DHT22;7074;51.508;7.018;2023-11-19T14:52:17;13.80;99.90
13998;DHT22;7074;51.508;7.018;2023-11-19T14:54:44;13.70;99.90
13998;DHT22;7074;51.508;7.018;2023-11-19T14:57:13;13.70;99.90
13998;DHT22;7074;51.508;7.018;2023-11-19T14:59:43;13.70;99.90
13998;DHT22;7074;51.508;7.018;2023-11-19T15:02:10;13.70;99.90
13998;DHT22;7074;51.508;7.018;2023-11-19T15:04:37;13.60;99.90
13998;DHT22;7074;51.508;7.018;2023-11-19T15:07:06;13.60;99.90
13998;DHT22;7074;51.508;7.018;2023-11-19T15:09:33;13.60;99.90
13998;DHT22;7074;51.508;7.018;2023-11-19T15:12:03;13.60;99.90
13998;DHT22;7074;51.508;7.018;2023-11-19T15:14:31;13.50;99.90
13998;DHT22;7074;51.508;7.018;2023-11-19T15:16:59;13.50;99.90
13998;DHT22;7074;51.508;7.018;2023-11-19T15:19:26;13.50;99.90
13998;DHT22;7074;51.508;7.018;2023-11-19T15:21:54;13.50;99.90
13998;DHT22;7074;51.508;7.018;2023-11-19T15:24:22;13.50;99.90
13998;DHT22;7074;51.508;7.018;2023-11-19T15:26:51;13.40;99.90
13998;DHT22;7074;51.508;7.018;2023-11-19T15:29:18;13.30;99.90
13998;DHT22;7074;51.508;7.018;2023-11-19T15:31:53;13.30;99.90
13998;DHT22;7074;51.508;7.018;2023-11-19T15:34:20;13.30;99.90
13998;DHT22;7074;51.508;7.018;2023-11-19T15:36:47;13.30;99.90
13998;DHT22;7074;51.508;7.018;2023-11-19T15:39:15;13.30;99.90
13998;DHT22;7074;51.508;7.018;2023-11-19T15:41:42;13.20;99.90
13998;DHT22;7074;51.508;7.018;2023-11-19T15:44:09;13.20;99.90
13998;DHT22;7074;51.508;7.018;2023-11-19T15:46:39;13.20;99.90
13998;DHT22;7074;51.508;7.018;2023-11-19T15:49:08;13.10;99.90
13998;DHT22;7074;51.508;7.018;2023-11-19T15:51:36;13.10;99.90
13998;DHT22;7074;51.508;7.018;2023-11-19T15:54:03;13.00;99.90
13998;DHT22;7074;51.508;7.018;2023-11-19T15:56:31;13.00;99.90
13998;DHT22;7074;51.508;7.018;2023-11-19T15:58:58;13.00;99.90
13998;DHT22;7074;51.508;7.018;2023-11-19T16:01:26;13.00;99.90